sensor_id;sensor_type;location;lat;lon;timestamp;temperature;humidity
77829;DHT22;67019;51.034;3.728;2023-03-01T00:01:19;2.20;67.70
77829;DHT22;67019;51.034;3.728;2023-03-01T00:03:47;2.20;67.80
77829;DHT22;67019;51.034;3.728;2023-03-01T00:06:16;2.10;67.80
77829;DHT22;67019;51.034;3.728;2023-03-01T00:08:43;2.20;67.90
77829;DHT22;67019;51.034;3.728;2023-03-01T00:11:13;2.20;68.70
77829;DHT22;67019;51.034;3.728;2023-03-01T00:13:42;2.30;68.70
77829;DHT22;67019;51.034;3.728;2023-03-01T00:16:18;2.20;69.70
77829;DHT22;67019;51.034;3.728;2023-03-01T00:18:45;2.20;69.50
77829;DHT22;67019;51.034;3.728;2023-03-01T00:21:13;2.20;70.90
77829;DHT22;67019;51.034;3.728;2023-03-01T00:23:40;2.00;72.10
77829;DHT22;67019;51.034;3.728;2023-03-01T00:26:11;2.00;72.20
77829;DHT22;67019;51.034;3.728;2023-03-01T00:28:38;2.10;72.20
77829;DHT22;67019;51.034;3.728;2023-03-01T00:31:11;1.80;73.90
77829;DHT22;67019;51.034;3.728;2023-03-01T00:33:40;1.90;73.60
77829;DHT22;67019;51.034;3.728;2023-03-01T00:36:08;1.80;75.00
77829;DHT22;67019;51.034;3.728;2023-03-01T00:38:37;1.80;74.60
77829;DHT22;67019;51.034;3.728;2023-03-01T00:41:06;1.90;75.50
77829;DHT22;67019;51.034;3.728;2023-03-01T00:43:35;1.80;74.70
77829;DHT22;67019;51.034;3.728;2023-03-01T00:46:10;1.80;75.20
77829;DHT22;67019;51.034;3.728;2023-03-01T00:48:39;1.90;74.50
77829;DHT22;67019;51.034;3.728;2023-03-01T00:51:21;3.20;76.60
77829;DHT22;67019;51.034;3.728;2023-03-01T00:53:54;1.80;76.80
77829;DHT22;67019;51.034;3.728;2023-03-01T00:56:23;2.00;77.40
77829;DHT22;67019;51.034;3.728;2023-03-01T00:58:52;2.00;77.40
77829;DHT22;67019;51.034;3.728;2023-03-01T01:01:23;1.90;77.90
77829;DHT22;67019;51.034;3.728;2023-03-01T01:04:01;1.80;77.80
77829;DHT22;67019;51.034;3.728;2023-03-01T01:06:30;1.90;78.10
77829;DHT22;67019;51.034;3.728;2023-03-01T01:08:58;1.90;78.50
77829;DHT22;67019;51.034;3.728;2023-03-01T01:11:28;2.00;78.40
77829;DHT22;67019;51.034;3.728;2023-03-01T01:13:56;1.90;78.30
77829;DHT22;67019;51.034;3.728;2023-03-01T01:16:26;1.80;79.00
77829;DHT22;67019;51.034;3.728;2023-03-01T01:18:54;1.90;78.80
77829;DHT22;67019;51.034;3.728;2023-03-01T01:21:23;2.00;79.20
77829;DHT22;67019;51.034;3.728;2023-03-01T01:23:51;1.90;79.30
77829;DHT22;67019;51.034;3.728;2023-03-01T01:26:26;1.90;79.30
77829;DHT22;67019;51.034;3.728;2023-03-01T01:28:50;1.90;79.70
77829;DHT22;67019;51.034;3.728;2023-03-01T01:31:18;1.70;81.00
77829;DHT22;67019;51.034;3.728;2023-03-01T01:33:46;1.70;81.60
77829;DHT22;67019;51.034;3.728;2023-03-01T01:36:15;1.70;81.80
77829;DHT22;67019;51.034;3.728;2023-03-01T01:38:43;1.60;82.10
77829;DHT22;67019;51.034;3.728;2023-03-01T01:41:13;1.60;82.50
77829;DHT22;67019;51.034;3.728;2023-03-01T01:43:43;1.70;82.50
77829;DHT22;67019;51.034;3.728;2023-03-01T01:46:26;1.80;82.40
77829;DHT22;67019;51.034;3.728;2023-03-01T01:49:10;1.70;82.00
77829;DHT22;67019;51.034;3.728;2023-03-01T01:51:40;1.60;82.40
77829;DHT22;67019;51.034;3.728;2023-03-01T01:54:13;1.60;83.50
77829;DHT22;67019;51.034;3.728;2023-03-01T01:56:44;1.50;82.60
77829;DHT22;67019;51.034;3.728;2023-03-01T01:59:13;1.50;82.50
77829;DHT22;67019;51.034;3.728;2023-03-01T02:01:42;1.70;81.40
77829;DHT22;67019;51.034;3.728;2023-03-01T02:04:12;1.60;81.90
77829;DHT22;67019;51.034;3.728;2023-03-01T02:06:49;1.50;82.90
77829;DHT22;67019;51.034;3.728;2023-03-01T02:09:14;1.60;81.30
77829;DHT22;67019;51.034;3.728;2023-03-01T02:11:44;1.70;82.00
77829;DHT22;67019;51.034;3.728;2023-03-01T02:14:11;1.50;81.50
77829;DHT22;67019;51.034;3.728;2023-03-01T02:16:39;1.50;82.10
77829;DHT22;67019;51.034;3.728;2023-03-01T02:19:12;1.40;83.00
77829;DHT22;67019;51.034;3.728;2023-03-01T02:21:43;1.30;83.20
77829;DHT22;67019;51.034;3.728;2023-03-01T02:24:26;1.30;83.00
77829;DHT22;67019;51.034;3.728;2023-03-01T02:26:54;1.40;83.40
77829;DHT22;67019;51.034;3.728;2023-03-01T02:29:23;1.30;84.00
77829;DHT22;67019;51.034;3.728;2023-03-01T02:31:53;1.40;83.80
77829;DHT22;67019;51.034;3.728;2023-03-01T02:34:24;1.30;83.60
77829;DHT22;67019;51.034;3.728;2023-03-01T02:36:59;1.30;84.00
77829;DHT22;67019;51.034;3.728;2023-03-01T02:39:44;1.30;83.60
77829;DHT22;67019;51.034;3.728;2023-03-01T02:41:53;1.30;85.10
77829;DHT22;67019;51.034;3.728;2023-03-01T02:44:22;1.30;84.30
77829;DHT22;67019;51.034;3.728;2023-03-01T02:46:52;1.50;84.40
77829;DHT22;67019;51.034;3.728;2023-03-01T02:49:26;1.30;84.00
77829;DHT22;67019;51.034;3.728;2023-03-01T02:54:48;1.20;86.10
77829;DHT22;67019;51.034;3.728;2023-03-01T02:57:17;1.10;86.40
77829;DHT22;67019;51.034;3.728;2023-03-01T02:59:45;1.30;87.80
77829;DHT22;67019;51.034;3.728;2023-03-01T03:02:21;1.20;87.20
77829;DHT22;67019;51.034;3.728;2023-03-01T03:04:50;1.10;87.90
77829;DHT22;67019;51.034;3.728;2023-03-01T03:07:18;1.10;88.20
77829;DHT22;67019;51.034;3.728;2023-03-01T03:09:46;1.20;88.10
77829;DHT22;67019;51.034;3.728;2023-03-01T03:12:13;1.10;89.60
77829;DHT22;67019;51.034;3.728;2023-03-01T03:14:41;1.10;90.20
77829;DHT22;67019;51.034;3.728;2023-03-01T03:17:08;1.10;89.90
77829;DHT22;67019;51.034;3.728;2023-03-01T03:19:36;1.00;89.90
77829;DHT22;67019;51.034;3.728;2023-03-01T03:22:03;1.00;90.40
77829;DHT22;67019;51.034;3.728;2023-03-01T03:24:31;1.00;90.10
77829;DHT22;67019;51.034;3.728;2023-03-01T03:27:00;1.00;90.40
77829;DHT22;67019;51.034;3.728;2023-03-01T03:29:28;1.10;90.20
77829;DHT22;67019;51.034;3.728;2023-03-01T03:31:57;3.20;90.90
77829;DHT22;67019;51.034;3.728;2023-03-01T03:34:24;1.00;90.80
77829;DHT22;67019;51.034;3.728;2023-03-01T03:36:56;1.00;90.30
77829;DHT22;67019;51.034;3.728;2023-03-01T03:39:26;0.90;90.30
77829;DHT22;67019;51.034;3.728;2023-03-01T03:41:55;1.00;90.60
77829;DHT22;67019;51.034;3.728;2023-03-01T03:44:23;1.10;90.20
77829;DHT22;67019;51.034;3.728;2023-03-01T03:46:50;0.90;90.70
77829;DHT22;67019;51.034;3.728;2023-03-01T03:49:18;1.00;90.60
77829;DHT22;67019;51.034;3.728;2023-03-01T03:51:47;1.00;90.40
77829;DHT22;67019;51.034;3.728;2023-03-01T03:54:16;1.00;90.20
77829;DHT22;67019;51.034;3.728;2023-03-01T03:56:44;1.00;90.00
77829;DHT22;67019;51.034;3.728;2023-03-01T03:59:12;0.90;90.50
77829;DHT22;67019;51.034;3.728;2023-03-01T04:01:40;0.90;90.00
77829;DHT22;67019;51.034;3.728;2023-03-01T04:04:07;0.80;90.00
77829;DHT22;67019;51.034;3.728;2023-03-01T04:06:35;0.80;90.30
77829;DHT22;67019;51.034;3.728;2023-03-01T04:09:03;0.90;89.80
77829;DHT22;67019;51.034;3.728;2023-03-01T04:11:30;0.50;93.70
77829;DHT22;67019;51.034;3.728;2023-03-01T04:13:59;0.70;90.30
77829;DHT22;67019;51.034;3.728;2023-03-01T04:16:26;1.00;89.10
77829;DHT22;67019;51.034;3.728;2023-03-01T04:18:54;0.90;88.60
77829;DHT22;67019;51.034;3.728;2023-03-01T04:21:22;0.90;88.40
77829;DHT22;67019;51.034;3.728;2023-03-01T04:23:49;1.00;88.90
77829;DHT22;67019;51.034;3.728;2023-03-01T04:26:19;0.90;89.00
77829;DHT22;67019;51.034;3.728;2023-03-01T04:28:47;0.90;93.50
77829;DHT22;67019;51.034;3.728;2023-03-01T04:31:18;0.90;88.70
77829;DHT22;67019;51.034;3.728;2023-03-01T04:33:54;0.60;93.20
77829;DHT22;67019;51.034;3.728;2023-03-01T04:36:17;0.80;89.20
77829;DHT22;67019;51.034;3.728;2023-03-01T04:38:45;0.70;89.60
77829;DHT22;67019;51.034;3.728;2023-03-01T04:41:17;0.80;90.00
77829;DHT22;67019;51.034;3.728;2023-03-01T04:43:45;0.50;93.70
77829;DHT22;67019;51.034;3.728;2023-03-01T04:46:15;0.60;90.10
77829;DHT22;67019;51.034;3.728;2023-03-01T04:48:44;0.60;90.40
77829;DHT22;67019;51.034;3.728;2023-03-01T04:51:13;0.70;90.10
77829;DHT22;67019;51.034;3.728;2023-03-01T04:53:41;0.70;89.90
77829;DHT22;67019;51.034;3.728;2023-03-01T04:56:10;0.70;90.10
77829;DHT22;67019;51.034;3.728;2023-03-01T04:58:39;0.70;89.30
77829;DHT22;67019;51.034;3.728;2023-03-01T05:01:11;0.70;89.50
77829;DHT22;67019;51.034;3.728;2023-03-01T05:03:44;0.70;90.10
77829;DHT22;67019;51.034;3.728;2023-03-01T05:06:12;0.60;89.90
77829;DHT22;67019;51.034;3.728;2023-03-01T05:08:40;0.60;90.10
77829;DHT22;67019;51.034;3.728;2023-03-01T05:11:09;0.60;90.00
77829;DHT22;67019;51.034;3.728;2023-03-01T05:13:38;0.60;90.20
77829;DHT22;67019;51.034;3.728;2023-03-01T05:16:07;0.50;93.10
77829;DHT22;67019;51.034;3.728;2023-03-01T05:18:36;0.60;88.90
77829;DHT22;67019;51.034;3.728;2023-03-01T05:23:52;0.60;90.00
77829;DHT22;67019;51.034;3.728;2023-03-01T05:26:20;0.50;90.00
77829;DHT22;67019;51.034;3.728;2023-03-01T05:28:50;0.60;89.50
77829;DHT22;67019;51.034;3.728;2023-03-01T05:31:17;0.70;89.20
77829;DHT22;67019;51.034;3.728;2023-03-01T05:33:45;0.60;89.30
77829;DHT22;67019;51.034;3.728;2023-03-01T05:36:12;0.60;88.90
77829;DHT22;67019;51.034;3.728;2023-03-01T05:38:40;0.60;89.20
77829;DHT22;67019;51.034;3.728;2023-03-01T05:41:13;0.60;89.50
77829;DHT22;67019;51.034;3.728;2023-03-01T05:43:38;0.60;89.30
77829;DHT22;67019;51.034;3.728;2023-03-01T05:46:09;0.60;89.60
77829;DHT22;67019;51.034;3.728;2023-03-01T05:48:38;0.60;89.20
77829;DHT22;67019;51.034;3.728;2023-03-01T05:51:07;0.70;89.50
77829;DHT22;67019;51.034;3.728;2023-03-01T05:53:34;0.50;88.60
77829;DHT22;67019;51.034;3.728;2023-03-01T05:56:03;0.40;89.90
77829;DHT22;67019;51.034;3.728;2023-03-01T05:58:31;0.40;90.00
77829;DHT22;67019;51.034;3.728;2023-03-01T06:00:59;0.30;90.00
77829;DHT22;67019;51.034;3.728;2023-03-01T06:03:27;0.40;89.60
77829;DHT22;67019;51.034;3.728;2023-03-01T06:05:58;0.30;90.10
77829;DHT22;67019;51.034;3.728;2023-03-01T06:08:26;0.30;89.70
77829;DHT22;67019;51.034;3.728;2023-03-01T06:10:55;0.20;90.30
77829;DHT22;67019;51.034;3.728;2023-03-01T06:13:24;0.10;90.40
77829;DHT22;67019;51.034;3.728;2023-03-01T06:15:51;0.30;90.30
77829;DHT22;67019;51.034;3.728;2023-03-01T06:18:19;0.30;90.40
77829;DHT22;67019;51.034;3.728;2023-03-01T06:20:54;0.30;89.50
77829;DHT22;67019;51.034;3.728;2023-03-01T06:23:24;0.20;90.00
77829;DHT22;67019;51.034;3.728;2023-03-01T06:25:52;0.20;89.90
77829;DHT22;67019;51.034;3.728;2023-03-01T06:28:20;0.40;89.70
77829;DHT22;67019;51.034;3.728;2023-03-01T06:30:53;0.20;90.10
77829;DHT22;67019;51.034;3.728;2023-03-01T06:33:19;0.30;89.70
77829;DHT22;67019;51.034;3.728;2023-03-01T06:35:48;0.20;89.30
77829;DHT22;67019;51.034;3.728;2023-03-01T06:38:16;0.20;90.20
77829;DHT22;67019;51.034;3.728;2023-03-01T06:40:51;0.40;89.20
77829;DHT22;67019;51.034;3.728;2023-03-01T06:43:14;0.30;89.30
77829;DHT22;67019;51.034;3.728;2023-03-01T06:45:42;0.30;89.10
77829;DHT22;67019;51.034;3.728;2023-03-01T06:48:10;0.30;88.50
77829;DHT22;67019;51.034;3.728;2023-03-01T06:50:37;0.40;88.30
77829;DHT22;67019;51.034;3.728;2023-03-01T06:53:05;0.40;88.10
77829;DHT22;67019;51.034;3.728;2023-03-01T06:55:33;0.60;86.70
77829;DHT22;67019;51.034;3.728;2023-03-01T06:58:01;0.50;86.00
77829;DHT22;67019;51.034;3.728;2023-03-01T07:00:29;0.50;86.30
77829;DHT22;67019;51.034;3.728;2023-03-01T07:03:01;0.60;86.20
77829;DHT22;67019;51.034;3.728;2023-03-01T07:05:30;0.50;85.70
77829;DHT22;67019;51.034;3.728;2023-03-01T07:07:58;0.50;86.10
77829;DHT22;67019;51.034;3.728;2023-03-01T07:10:27;0.60;85.10
77829;DHT22;67019;51.034;3.728;2023-03-01T07:12:57;2.80;86.10
77829;DHT22;67019;51.034;3.728;2023-03-01T07:15:25;0.70;84.70
77829;DHT22;67019;51.034;3.728;2023-03-01T07:17:54;0.70;84.60
77829;DHT22;67019;51.034;3.728;2023-03-01T07:20:21;1.30;85.20
77829;DHT22;67019;51.034;3.728;2023-03-01T07:22:54;0.80;83.00
77829;DHT22;67019;51.034;3.728;2023-03-01T07:25:24;0.70;83.90
77829;DHT22;67019;51.034;3.728;2023-03-01T07:27:52;0.70;83.70
77829;DHT22;67019;51.034;3.728;2023-03-01T07:30:21;0.80;83.20
77829;DHT22;67019;51.034;3.728;2023-03-01T07:32:51;0.70;83.80
77829;DHT22;67019;51.034;3.728;2023-03-01T07:35:19;0.80;83.30
77829;DHT22;67019;51.034;3.728;2023-03-01T07:37:46;1.00;82.50
77829;DHT22;67019;51.034;3.728;2023-03-01T07:40:14;0.90;81.80
77829;DHT22;67019;51.034;3.728;2023-03-01T07:42:42;0.90;82.20
77829;DHT22;67019;51.034;3.728;2023-03-01T07:45:10;0.90;81.20
77829;DHT22;67019;51.034;3.728;2023-03-01T07:47:39;0.90;81.30
77829;DHT22;67019;51.034;3.728;2023-03-01T07:50:08;1.00;80.50
77829;DHT22;67019;51.034;3.728;2023-03-01T07:52:36;1.00;80.70
77829;DHT22;67019;51.034;3.728;2023-03-01T07:55:06;1.00;81.70
77829;DHT22;67019;51.034;3.728;2023-03-01T07:57:33;1.20;79.50
77829;DHT22;67019;51.034;3.728;2023-03-01T08:00:01;1.40;79.10
77829;DHT22;67019;51.034;3.728;2023-03-01T08:02:29;1.30;79.40
77829;DHT22;67019;51.034;3.728;2023-03-01T08:04:56;1.60;86.50
77829;DHT22;67019;51.034;3.728;2023-03-01T08:07:24;1.50;78.50
77829;DHT22;67019;51.034;3.728;2023-03-01T08:09:52;1.50;78.40
77829;DHT22;67019;51.034;3.728;2023-03-01T08:12:19;1.40;78.10
77829;DHT22;67019;51.034;3.728;2023-03-01T08:14:47;1.50;77.10
77829;DHT22;67019;51.034;3.728;2023-03-01T08:17:15;1.60;77.90
77829;DHT22;67019;51.034;3.728;2023-03-01T08:19:43;1.60;76.90
77829;DHT22;67019;51.034;3.728;2023-03-01T08:22:11;1.60;77.20
77829;DHT22;67019;51.034;3.728;2023-03-01T08:24:40;1.70;77.40
77829;DHT22;67019;51.034;3.728;2023-03-01T08:27:08;1.60;76.10
77829;DHT22;67019;51.034;3.728;2023-03-01T08:29:36;1.90;75.30
77829;DHT22;67019;51.034;3.728;2023-03-01T08:32:04;1.60;76.20
77829;DHT22;67019;51.034;3.728;2023-03-01T08:34:31;2.20;76.50
77829;DHT22;67019;51.034;3.728;2023-03-01T08:37:04;1.70;75.70
77829;DHT22;67019;51.034;3.728;2023-03-01T08:39:31;1.80;75.20
77829;DHT22;67019;51.034;3.728;2023-03-01T08:41:59;1.80;74.30
77829;DHT22;67019;51.034;3.728;2023-03-01T08:44:26;1.80;75.20
77829;DHT22;67019;51.034;3.728;2023-03-01T08:46:54;2.00;74.90
77829;DHT22;67019;51.034;3.728;2023-03-01T08:49:22;2.20;73.80
77829;DHT22;67019;51.034;3.728;2023-03-01T08:51:50;2.20;74.20
77829;DHT22;67019;51.034;3.728;2023-03-01T08:54:20;2.10;74.70
77829;DHT22;67019;51.034;3.728;2023-03-01T08:56:48;2.20;74.00
77829;DHT22;67019;51.034;3.728;2023-03-01T08:59:17;2.40;73.00
77829;DHT22;67019;51.034;3.728;2023-03-01T09:01:44;2.30;72.60
77829;DHT22;67019;51.034;3.728;2023-03-01T09:04:14;2.20;72.20
77829;DHT22;67019;51.034;3.728;2023-03-01T09:06:43;2.20;71.60
77829;DHT22;67019;51.034;3.728;2023-03-01T09:09:14;2.20;71.40
77829;DHT22;67019;51.034;3.728;2023-03-01T09:11:43;2.30;71.10
77829;DHT22;67019;51.034;3.728;2023-03-01T09:14:13;2.40;71.50
77829;DHT22;67019;51.034;3.728;2023-03-01T09:16:41;2.50;71.20
77829;DHT22;67019;51.034;3.728;2023-03-01T09:19:08;2.50;71.00
77829;DHT22;67019;51.034;3.728;2023-03-01T09:21:37;2.50;71.20
77829;DHT22;67019;51.034;3.728;2023-03-01T09:24:07;2.50;71.30
77829;DHT22;67019;51.034;3.728;2023-03-01T09:26:35;2.80;70.40
77829;DHT22;67019;51.034;3.728;2023-03-01T09:29:02;2.80;70.00
77829;DHT22;67019;51.034;3.728;2023-03-01T09:31:30;2.80;70.70
77829;DHT22;67019;51.034;3.728;2023-03-01T09:33:57;2.90;68.80
77829;DHT22;67019;51.034;3.728;2023-03-01T09:36:25;2.70;69.60
77829;DHT22;67019;51.034;3.728;2023-03-01T09:38:53;2.80;70.50
77829;DHT22;67019;51.034;3.728;2023-03-01T09:44:00;2.80;68.10
77829;DHT22;67019;51.034;3.728;2023-03-01T09:46:32;2.90;68.30
77829;DHT22;67019;51.034;3.728;2023-03-01T09:49:02;3.00;68.40
77829;DHT22;67019;51.034;3.728;2023-03-01T09:51:33;3.30;67.10
77829;DHT22;67019;51.034;3.728;2023-03-01T09:54:02;3.40;65.90
77829;DHT22;67019;51.034;3.728;2023-03-01T09:56:40;3.40;65.90
77829;DHT22;67019;51.034;3.728;2023-03-01T09:59:26;3.50;65.50
77829;DHT22;67019;51.034;3.728;2023-03-01T10:02:17;2.50;64.50
77829;DHT22;67019;51.034;3.728;2023-03-01T10:04:50;3.60;64.60
77829;DHT22;67019;51.034;3.728;2023-03-01T10:09:59;3.50;64.60
77829;DHT22;67019;51.034;3.728;2023-03-01T10:12:33;3.50;64.50
77829;DHT22;67019;51.034;3.728;2023-03-01T10:15:15;3.60;62.20
77829;DHT22;67019;51.034;3.728;2023-03-01T10:18:04;3.70;62.20
77829;DHT22;67019;51.034;3.728;2023-03-01T10:20:52;3.80;62.40
77829;DHT22;67019;51.034;3.728;2023-03-01T10:23:16;3.70;62.50
77829;DHT22;67019;51.034;3.728;2023-03-01T10:28:50;4.00;61.60
77829;DHT22;67019;51.034;3.728;2023-03-01T10:31:25;4.00;61.30
77829;DHT22;67019;51.034;3.728;2023-03-01T10:33:55;3.90;60.40
77829;DHT22;67019;51.034;3.728;2023-03-01T10:36:24;4.00;60.40
77829;DHT22;67019;51.034;3.728;2023-03-01T10:38:56;4.10;59.50
77829;DHT22;67019;51.034;3.728;2023-03-01T10:41:26;4.60;59.20
77829;DHT22;67019;51.034;3.728;2023-03-01T10:43:56;4.60;58.70
77829;DHT22;67019;51.034;3.728;2023-03-01T10:46:32;4.60;58.00
77829;DHT22;67019;51.034;3.728;2023-03-01T10:49:15;4.60;57.50
77829;DHT22;67019;51.034;3.728;2023-03-01T10:51:46;4.50;57.60
77829;DHT22;67019;51.034;3.728;2023-03-01T10:54:28;4.40;59.30
77829;DHT22;67019;51.034;3.728;2023-03-01T10:56:54;4.40;58.80
77829;DHT22;67019;51.034;3.728;2023-03-01T10:59:34;4.50;58.30
77829;DHT22;67019;51.034;3.728;2023-03-01T11:04:39;4.50;58.60
77829;DHT22;67019;51.034;3.728;2023-03-01T11:07:08;4.50;58.80
77829;DHT22;67019;51.034;3.728;2023-03-01T11:09:36;4.60;58.50
77829;DHT22;67019;51.034;3.728;2023-03-01T11:12:13;4.60;57.60
77829;DHT22;67019;51.034;3.728;2023-03-01T11:14:38;4.80;58.10
77829;DHT22;67019;51.034;3.728;2023-03-01T11:17:29;4.80;58.70
77829;DHT22;67019;51.034;3.728;2023-03-01T11:22:47;5.30;55.80
77829;DHT22;67019;51.034;3.728;2023-03-01T11:25:19;5.30;55.80
77829;DHT22;67019;51.034;3.728;2023-03-01T11:27:47;5.50;56.30
77829;DHT22;67019;51.034;3.728;2023-03-01T11:30:24;5.50;55.80
77829;DHT22;67019;51.034;3.728;2023-03-01T11:36:07;5.50;54.00
77829;DHT22;67019;51.034;3.728;2023-03-01T11:38:19;5.20;54.40
77829;DHT22;67019;51.034;3.728;2023-03-01T11:40:49;5.30;55.10
77829;DHT22;67019;51.034;3.728;2023-03-01T11:43:20;5.40;54.90
77829;DHT22;67019;51.034;3.728;2023-03-01T11:48:52;6.00;52.10
77829;DHT22;67019;51.034;3.728;2023-03-01T11:57:03;6.10;52.00
77829;DHT22;67019;51.034;3.728;2023-03-01T12:10:37;6.20;50.80
77829;DHT22;67019;51.034;3.728;2023-03-01T12:13:36;6.20;50.70
77829;DHT22;67019;51.034;3.728;2023-03-01T12:16:30;6.10;50.00
77829;DHT22;67019;51.034;3.728;2023-03-01T12:21:50;6.00;51.70
77829;DHT22;67019;51.034;3.728;2023-03-01T12:27:22;6.20;51.70
77829;DHT22;67019;51.034;3.728;2023-03-01T12:41:21;6.40;49.10
77829;DHT22;67019;51.034;3.728;2023-03-01T12:44:05;6.50;49.80
77829;DHT22;67019;51.034;3.728;2023-03-01T12:49:43;6.80;48.60
77829;DHT22;67019;51.034;3.728;2023-03-01T12:52:19;6.90;48.50
77829;DHT22;67019;51.034;3.728;2023-03-01T12:54:46;6.80;47.80
77829;DHT22;67019;51.034;3.728;2023-03-01T12:57:30;6.60;48.60
77829;DHT22;67019;51.034;3.728;2023-03-01T13:05:26;6.20;50.00
77829;DHT22;67019;51.034;3.728;2023-03-01T13:08:07;6.50;49.00
77829;DHT22;67019;51.034;3.728;2023-03-01T13:10:53;6.80;48.40
77829;DHT22;67019;51.034;3.728;2023-03-01T13:13:23;6.80;47.00
77829;DHT22;67019;51.034;3.728;2023-03-01T13:15:51;6.80;47.50
77829;DHT22;67019;51.034;3.728;2023-03-01T13:20:56;6.70;49.30
77829;DHT22;67019;51.034;3.728;2023-03-01T13:23:29;7.00;48.90
77829;DHT22;67019;51.034;3.728;2023-03-01T13:39:04;6.80;47.70
77829;DHT22;67019;51.034;3.728;2023-03-01T13:47:20;6.70;49.10
77829;DHT22;67019;51.034;3.728;2023-03-01T13:49:42;6.90;49.00
77829;DHT22;67019;51.034;3.728;2023-03-01T13:51:58;7.00;49.10
77829;DHT22;67019;51.034;3.728;2023-03-01T13:54:31;7.20;48.40
77829;DHT22;67019;51.034;3.728;2023-03-01T13:57:01;7.20;47.90
77829;DHT22;67019;51.034;3.728;2023-03-01T13:59:29;7.00;47.90
77829;DHT22;67019;51.034;3.728;2023-03-01T14:01:59;7.00;48.40
77829;DHT22;67019;51.034;3.728;2023-03-01T14:04:29;7.00;48.60
77829;DHT22;67019;51.034;3.728;2023-03-01T14:07:13;6.80;49.90
77829;DHT22;67019;51.034;3.728;2023-03-01T14:09:43;7.00;49.00
77829;DHT22;67019;51.034;3.728;2023-03-01T14:12:35;7.20;49.30
77829;DHT22;67019;51.034;3.728;2023-03-01T14:17:49;7.40;49.20
77829;DHT22;67019;51.034;3.728;2023-03-01T14:20:24;7.40;48.60
77829;DHT22;67019;51.034;3.728;2023-03-01T14:23:07;7.30;49.00
77829;DHT22;67019;51.034;3.728;2023-03-01T14:25:31;6.90;50.20
77829;DHT22;67019;51.034;3.728;2023-03-01T14:28:12;7.10;50.10
77829;DHT22;67019;51.034;3.728;2023-03-01T14:31:25;7.00;50.90
77829;DHT22;67019;51.034;3.728;2023-03-01T14:35:58;7.10;50.50
77829;DHT22;67019;51.034;3.728;2023-03-01T14:41:11;7.20;49.90
77829;DHT22;67019;51.034;3.728;2023-03-01T14:43:50;7.10;49.80
77829;DHT22;67019;51.034;3.728;2023-03-01T14:46:31;7.10;50.10
77829;DHT22;67019;51.034;3.728;2023-03-01T14:49:13;7.30;49.40
77829;DHT22;67019;51.034;3.728;2023-03-01T14:51:59;7.20;49.00
77829;DHT22;67019;51.034;3.728;2023-03-01T14:54:47;7.10;49.30
77829;DHT22;67019;51.034;3.728;2023-03-01T14:57:23;7.00;49.70
77829;DHT22;67019;51.034;3.728;2023-03-01T14:59:54;7.00;50.30
77829;DHT22;67019;51.034;3.728;2023-03-01T15:02:26;7.20;50.30
77829;DHT22;67019;51.034;3.728;2023-03-01T15:05:02;7.20;49.70
77829;DHT22;67019;51.034;3.728;2023-03-01T15:07:36;7.00;50.10
77829;DHT22;67019;51.034;3.728;2023-03-01T15:09:58;7.00;50.90
77829;DHT22;67019;51.034;3.728;2023-03-01T15:15:33;7.00;50.60
77829;DHT22;67019;51.034;3.728;2023-03-01T15:18:04;7.30;50.00
77829;DHT22;67019;51.034;3.728;2023-03-01T15:20:31;7.20;50.40
77829;DHT22;67019;51.034;3.728;2023-03-01T15:23:03;7.40;49.80
77829;DHT22;67019;51.034;3.728;2023-03-01T15:25:32;7.40;50.30
77829;DHT22;67019;51.034;3.728;2023-03-01T15:28:01;7.30;49.40
77829;DHT22;67019;51.034;3.728;2023-03-01T15:30:32;7.00;50.30
77829;DHT22;67019;51.034;3.728;2023-03-01T15:35:56;7.00;49.40
77829;DHT22;67019;51.034;3.728;2023-03-01T15:38:36;6.80;50.30
77829;DHT22;67019;51.034;3.728;2023-03-01T15:43:54;7.10;49.20
77829;DHT22;67019;51.034;3.728;2023-03-01T15:46:27;7.00;49.80
77829;DHT22;67019;51.034;3.728;2023-03-01T15:48:58;7.00;50.10
77829;DHT22;67019;51.034;3.728;2023-03-01T15:51:35;7.20;49.70
77829;DHT22;67019;51.034;3.728;2023-03-01T15:54:10;7.40;49.30
77829;DHT22;67019;51.034;3.728;2023-03-01T15:56:37;8.10;47.90
77829;DHT22;67019;51.034;3.728;2023-03-01T15:59:04;9.20;45.10
77829;DHT22;67019;51.034;3.728;2023-03-01T16:01:33;10.30;42.50
77829;DHT22;67019;51.034;3.728;2023-03-01T16:04:06;11.10;40.50
77829;DHT22;67019;51.034;3.728;2023-03-01T16:06:34;11.50;38.80
77829;DHT22;67019;51.034;3.728;2023-03-01T16:09:02;11.00;40.10
77829;DHT22;67019;51.034;3.728;2023-03-01T16:11:29;10.80;40.20
77829;DHT22;67019;51.034;3.728;2023-03-01T16:14:00;10.10;41.20
77829;DHT22;67019;51.034;3.728;2023-03-01T16:16:28;9.20;44.30
77829;DHT22;67019;51.034;3.728;2023-03-01T16:18:56;8.80;46.30
77829;DHT22;67019;51.034;3.728;2023-03-01T16:21:24;8.70;46.80
77829;DHT22;67019;51.034;3.728;2023-03-01T16:23:52;8.90;45.20
77829;DHT22;67019;51.034;3.728;2023-03-01T16:26:22;9.20;44.70
77829;DHT22;67019;51.034;3.728;2023-03-01T16:28:49;9.90;43.80
77829;DHT22;67019;51.034;3.728;2023-03-01T16:31:18;9.70;42.80
77829;DHT22;67019;51.034;3.728;2023-03-01T16:33:48;8.70;45.80
77829;DHT22;67019;51.034;3.728;2023-03-01T16:36:21;9.00;45.00
77829;DHT22;67019;51.034;3.728;2023-03-01T16:38:51;8.70;45.30
77829;DHT22;67019;51.034;3.728;2023-03-01T16:41:22;9.40;43.80
77829;DHT22;67019;51.034;3.728;2023-03-01T16:43:50;9.60;43.80
77829;DHT22;67019;51.034;3.728;2023-03-01T16:46:25;9.10;45.30
77829;DHT22;67019;51.034;3.728;2023-03-01T16:48:55;8.80;44.70
77829;DHT22;67019;51.034;3.728;2023-03-01T16:51:24;9.10;44.50
77829;DHT22;67019;51.034;3.728;2023-03-01T16:53:52;9.50;44.00
77829;DHT22;67019;51.034;3.728;2023-03-01T16:56:20;9.10;44.50
77829;DHT22;67019;51.034;3.728;2023-03-01T16:58:49;9.50;44.40
77829;DHT22;67019;51.034;3.728;2023-03-01T17:01:19;9.70;43.60
77829;DHT22;67019;51.034;3.728;2023-03-01T17:03:49;9.00;44.30
77829;DHT22;67019;51.034;3.728;2023-03-01T17:06:20;8.50;47.00
77829;DHT22;67019;51.034;3.728;2023-03-01T17:08:49;8.10;47.10
77829;DHT22;67019;51.034;3.728;2023-03-01T17:11:19;7.30;49.60
77829;DHT22;67019;51.034;3.728;2023-03-01T17:13:48;6.80;50.70
77829;DHT22;67019;51.034;3.728;2023-03-01T17:16:18;6.30;52.20
77829;DHT22;67019;51.034;3.728;2023-03-01T17:18:47;6.30;52.80
77829;DHT22;67019;51.034;3.728;2023-03-01T17:21:14;6.00;53.60
77829;DHT22;67019;51.034;3.728;2023-03-01T17:23:44;5.70;54.20
77829;DHT22;67019;51.034;3.728;2023-03-01T17:26:15;5.70;55.20
77829;DHT22;67019;51.034;3.728;2023-03-01T17:28:43;5.60;54.50
77829;DHT22;67019;51.034;3.728;2023-03-01T17:31:11;5.50;55.20
77829;DHT22;67019;51.034;3.728;2023-03-01T17:33:40;5.50;55.10
77829;DHT22;67019;51.034;3.728;2023-03-01T17:36:08;5.60;54.40
77829;DHT22;67019;51.034;3.728;2023-03-01T17:38:36;5.70;54.30
77829;DHT22;67019;51.034;3.728;2023-03-01T17:41:05;5.70;54.40
77829;DHT22;67019;51.034;3.728;2023-03-01T17:43:33;5.40;54.50
77829;DHT22;67019;51.034;3.728;2023-03-01T17:46:01;5.50;54.40
77829;DHT22;67019;51.034;3.728;2023-03-01T17:48:28;5.50;54.80
77829;DHT22;67019;51.034;3.728;2023-03-01T17:50:58;5.40;54.80